D.t.mariano — IBKF — position and weather

sailwx.info

Track history (hours):
 
Tides and Currents Weather Stations Pressure Air Temp Water Temp Dewpoint Dewpoint Depression Visibility Wind Speed Wind Dir Waves Ship Positions

D.t.mariano

Last reported at 2018-Feb-05 18:36 UTC. Time now 2018-Feb-22 03:04 UTC.
Position N 26°13' W 079°24'.
Warning: this ship's position is 16 days out of date.

Length 243 m; draft 12.1 m.

Type: Ship. MMSI: 247274100.

Date/timePositionNaut miles runAvg speedWind from/ knotsBaromVisibWave heightAir tempDewpointWater temp
2018-Feb-05 18:36N 26°13' W 079°24'1813.2
2018-Feb-05 17:12N 25°55' W 079°28'414.1
2018-Feb-05 16:57N 25°51' W 079°28'614.4
2018-Feb-05 16:30N 25°45' W 079°30'714.2
2018-Feb-05 16:00N 25°38' W 079°32'  
2018-Jan-31 07:14N 29°57' W 090°23'  
2018-Jan-29 00:37N 27°35' W 096°06'210.3
2018-Jan-29 00:27N 27°35' W 096°08'5 9.5
2018-Jan-28 23:54N 27°35' W 096°14'4 9.2
2018-Jan-28 23:27N 27°34' W 096°19'4 9.1
2018-Jan-28 23:00N 27°34' W 096°23'4 9.0
2018-Jan-28 22:30N 27°34' W 096°28'5 8.9
2018-Jan-28 21:59N 27°33' W 096°34'5 9.6
2018-Jan-28 21:29N 27°36' W 096°39'510.5
2018-Jan-28 21:00N 27°38' W 096°44'612.7
2018-Jan-28 20:30N 27°42' W 096°49'713.2
2018-Jan-28 19:59N 27°46' W 096°56'713.1
2018-Jan-28 19:29N 27°50' W 097°02'4 9.3
2018-Jan-28 19:00N 27°50' W 097°07'510.6
2018-Jan-28 18:30N 27°49' W 097°13'611.6
2018-Jan-28 17:59N 27°49' W 097°19'  
Track history (hours):
 
Tides and Currents Weather Stations Pressure Air Temp Water Temp Dewpoint Dewpoint Depression Visibility Wind Speed Wind Dir Waves Ship Positions

D.t.mariano

Last reported at 2018-Feb-05 18:36 UTC. Time now 2018-Feb-22 03:04 UTC.
Position N 26°13' W 079°24'.
Warning: this ship's position is 16 days out of date.

Length 243 m; draft 12.1 m.

Type: Ship. MMSI: 247274100.

Date/timePositionNaut miles runAvg speedWind from/ knotsBaromVisibWave heightAir tempDewpointWater temp
2018-Feb-05 18:36N 26°13' W 079°24'1813.2
2018-Feb-05 17:12N 25°55' W 079°28'414.1
2018-Feb-05 16:57N 25°51' W 079°28'614.4
2018-Feb-05 16:30N 25°45' W 079°30'714.2
2018-Feb-05 16:00N 25°38' W 079°32'  
2018-Jan-31 07:14N 29°57' W 090°23'  
2018-Jan-29 00:37N 27°35' W 096°06'210.3
2018-Jan-29 00:27N 27°35' W 096°08'5 9.5
2018-Jan-28 23:54N 27°35' W 096°14'4 9.2
2018-Jan-28 23:27N 27°34' W 096°19'4 9.1
2018-Jan-28 23:00N 27°34' W 096°23'4 9.0
2018-Jan-28 22:30N 27°34' W 096°28'5 8.9
2018-Jan-28 21:59N 27°33' W 096°34'5 9.6
2018-Jan-28 21:29N 27°36' W 096°39'510.5
2018-Jan-28 21:00N 27°38' W 096°44'612.7
2018-Jan-28 20:30N 27°42' W 096°49'713.2
2018-Jan-28 19:59N 27°46' W 096°56'713.1
2018-Jan-28 19:29N 27°50' W 097°02'4 9.3
2018-Jan-28 19:00N 27°50' W 097°07'510.6
2018-Jan-28 18:30N 27°49' W 097°13'611.6
2018-Jan-28 17:59N 27°49' W 097°19'  

Dump ship's entire track history